Time;durP1;ratioP1;P1;durP2;ratioP2;P2;SDS_P1;SDS_P2;PMS_P1;PMS_P2;Temp;Humidity;BMP_temperature;BMP_pressure;BME280_temperature;BME280_humidity;BME280_pressure;Samples;Min_cycle;Max_cycle;Signal;HPM_P1;HPM_P2
2023/04/10 00:00:11;;;;;;;24.85;12.43;;;;;;;7.06;100.00;99178.09;3231380;22;20031;-89
2023/04/10 00:01:47;;;;;;;24.85;11.70;;;;;;;6.98;100.00;99182.44;3240648;22;20046;-91
2023/04/10 00:03:02;;;;;;;23.08;11.85;;;;;;;7.03;100.00;99180.72;3241536;22;20043;-90
2023/04/10 00:04:18;;;;;;;26.38;12.10;;;;;;;7.21;100.00;99172.84;3240652;22;20020;-90
2023/04/10 00:05:33;;;;;;;24.55;12.80;;;;;;;7.07;100.00;99180.69;3241622;22;20363;-90
2023/04/10 00:06:49;;;;;;;24.20;12.75;;;;;;;7.12;100.00;99175.47;3240724;22;20022;-88
2023/04/10 00:08:05;;;;;;;25.60;13.23;;;;;;;7.15;100.00;99174.59;3241456;22;20505;-87
2023/04/10 00:09:20;;;;;;;29.95;13.63;;;;;;;7.13;100.00;99174.63;3241238;22;20077;-90
2023/04/10 00:10:36;;;;;;;27.40;13.30;;;;;;;7.05;100.00;99174.63;3241072;22;20019;-90
2023/04/10 00:11:51;;;;;;;24.60;12.77;;;;;;;7.04;100.00;99170.28;3241243;22;20024;-90
2023/04/10 00:13:07;;;;;;;26.65;13.73;;;;;;;7.16;100.00;99169.41;3240659;22;20030;-89
2023/04/10 00:14:23;;;;;;;23.42;13.10;;;;;;;7.46;100.00;99169.28;3241678;22;20073;-89
2023/04/10 00:15:38;;;;;;;25.52;13.07;;;;;;;7.54;100.00;99175.34;3240867;22;20016;-91
2023/04/10 00:16:54;;;;;;;23.83;12.98;;;;;;;7.60;100.00;99171.88;3241754;22;20027;-91
2023/04/10 00:18:11;;;;;;;25.10;12.82;;;;;;;7.62;100.00;99167.50;3241301;22;20016;-90
2023/04/10 00:19:26;;;;;;;24.58;13.02;;;;;;;7.55;100.00;99166.66;3240430;22;20108;-91
2023/04/10 00:20:42;;;;;;;22.88;12.05;;;;;;;7.53;100.00;99167.53;3223572;23;20015;-89
2023/04/10 00:21:58;;;;;;;25.55;14.02;;;;;;;7.45;100.00;99170.16;3231277;22;20023;-91
2023/04/10 00:23:13;;;;;;;25.10;14.38;;;;;;;7.53;100.00;99172.75;3240704;22;20038;-91
2023/04/10 00:24:29;;;;;;;32.08;16.35;;;;;;;7.63;100.00;99167.50;3241103;22;20099;-91
2023/04/10 00:25:46;;;;;;;32.85;17.00;;;;;;;7.62;100.00;99165.78;3240861;22;20020;-90
2023/04/10 00:27:02;;;;;;;32.60;17.30;;;;;;;7.67;100.00;99159.66;3241608;22;20043;-90
2023/04/10 00:28:17;;;;;;;35.78;17.48;;;;;;;7.71;100.00;99159.66;3240958;22;20333;-92
2023/04/10 00:29:33;;;;;;;32.70;16.67;;;;;;;7.68;100.00;99164.84;3241366;22;20042;-90
2023/04/10 00:30:48;;;;;;;34.08;17.42;;;;;;;7.67;100.00;99163.13;3240668;22;20070;-90
2023/04/10 00:32:04;;;;;;;32.38;15.95;;;;;;;7.53;100.00;99158.00;3241078;22;20020;-91
2023/04/10 00:33:19;;;;;;;29.75;16.08;;;;;;;7.47;100.00;99153.66;3241083;22;20019;-89
2023/04/10 00:34:35;;;;;;;32.30;16.30;;;;;;;7.42;100.00;99155.44;3242022;22;20019;-90
2023/04/10 00:35:50;;;;;;;40.15;17.90;;;;;;;7.06;100.00;99152.06;3241143;22;20019;-89
2023/04/10 00:37:06;;;;;;;30.80;15.63;;;;;;;6.90;100.00;99149.47;3240539;22;20560;-90
2023/04/10 00:38:22;;;;;;;26.98;14.73;;;;;;;6.92;100.00;99154.69;3241120;22;20027;-91
2023/04/10 00:39:37;;;;;;;26.65;14.07;;;;;;;6.88;100.00;99152.94;3223819;23;20035;-90
2023/04/10 00:40:53;;;;;;;26.70;13.50;;;;;;;6.93;100.00;99151.22;3230998;22;20171;-91
2023/04/10 00:42:09;;;;;;;24.65;12.55;;;;;;;7.16;100.00;99143.34;3240553;22;20046;-90
2023/04/10 00:43:24;;;;;;;23.25;12.88;;;;;;;7.10;100.00;99143.34;3241558;22;20407;-89
2023/04/10 00:44:40;;;;;;;22.63;11.50;;;;;;;7.01;100.00;99143.41;3240509;22;21261;-90
2023/04/10 00:45:55;;;;;;;22.00;12.07;;;;;;;6.81;100.00;99143.44;3242069;22;20026;-91
2023/04/10 00:47:13;;;;;;;22.65;12.18;;;;;;;6.76;100.00;99144.28;3241241;22;20020;-90
2023/04/10 00:48:28;;;;;;;22.98;11.77;;;;;;;6.73;100.00;99146.03;3241834;22;20107;-90
2023/04/10 00:49:44;;;;;;;23.75;12.55;;;;;;;6.81;100.00;99140.81;3241960;22;20066;-89
2023/04/10 00:50:59;;;;;;;22.05;11.60;;;;;;;6.77;100.00;99137.34;3241404;22;20023;-90
2023/04/10 00:52:16;;;;;;;23.02;12.40;;;;;;;6.81;100.00;99139.06;3240381;22;20050;-89
2023/04/10 00:53:32;;;;;;;22.20;12.25;;;;;;;6.95;100.00;99130.38;3241373;22;20067;-90
2023/04/10 00:54:48;;;;;;;24.25;12.23;;;;;;;7.14;100.00;99132.09;3241669;22;20019;-91
2023/04/10 00:56:04;;;;;;;23.85;12.32;;;;;;;7.02;100.00;99135.56;3241390;22;20021;-91
2023/04/10 00:57:20;;;;;;;23.70;12.27;;;;;;;6.89;100.00;99137.34;3240437;22;20068;-90
2023/04/10 00:58:35;;;;;;;22.88;11.68;;;;;;;6.99;100.00;99137.34;3241008;22;20023;-89
2023/04/10 00:59:52;;;;;;;21.98;12.10;;;;;;;6.98;100.00;99132.97;3240391;22;20046;-89
2023/04/10 01:01:07;;;;;;;22.20;11.57;;;;;;;6.96;100.00;99142.53;3241413;22;20034;-89
2023/04/10 01:02:23;;;;;;;22.05;12.35;;;;;;;6.88;100.00;99138.22;3240539;22;20056;-90
2023/04/10 01:03:41;;;;;;;25.35;12.00;;;;;;;7.05;100.00;99134.69;3240160;22;20093;-89
2023/04/10 01:04:57;;;;;;;22.83;12.05;;;;;;;6.90;100.00;99143.41;3240182;22;20390;-89
2023/04/10 01:06:34;;;;;;;25.13;12.50;;;;;;;7.01;100.00;99143.41;3241566;22;20095;-89
2023/04/10 01:08:06;;;;;;;24.30;12.98;;;;;;;7.10;100.00;99135.53;3240932;22;20829;-90
2023/04/10 01:09:57;;;;;;;25.88;12.60;;;;;;;7.14;100.00;99137.28;3241871;22;20107;-89
2023/04/10 01:11:26;;;;;;;22.27;11.93;;;;;;;7.23;100.00;99145.94;3240530;22;20019;-89
2023/04/10 01:13:14;;;;;;;26.35;12.82;;;;;;;7.25;100.00;99138.97;3241522;22;20051;-89
2023/04/10 01:14:48;;;;;;;24.33;12.68;;;;;;;7.33;100.00;99139.81;3241727;22;20130;-89
2023/04/10 01:16:09;;;;;;;22.33;12.57;;;;;;;7.35;100.00;99143.28;3240970;22;20043;-89
2023/04/10 01:17:32;;;;;;;22.33;12.43;;;;;;;7.37;100.00;99138.94;3241258;22;20016;-89
2023/04/10 01:19:19;;;;;;;21.38;11.60;;;;;;;7.38;100.00;99137.22;3225077;23;20031;-90
2023/04/10 01:20:38;;;;;;;22.00;12.20;;;;;;;7.38;100.00;99143.28;3239073;22;20038;-89
2023/04/10 01:21:55;;;;;;;22.65;12.57;;;;;;;7.38;100.00;99132.00;3240936;22;20418;-89
2023/04/10 01:23:41;;;;;;;21.80;12.38;;;;;;;7.32;100.00;99133.75;3242528;22;20031;-90
2023/04/10 01:25:12;;;;;;;21.73;11.88;;;;;;;7.17;100.00;99139.00;3242108;22;20506;-89
2023/04/10 01:26:41;;;;;;;24.95;12.10;;;;;;;7.18;100.00;99141.59;3241652;22;20039;-90
2023/04/10 01:28:17;;;;;;;20.35;11.20;;;;;;;7.20;100.00;99145.06;3241937;22;20062;-89
2023/04/10 01:29:35;;;;;;;21.65;10.65;;;;;;;7.24;100.00;99145.06;3241643;22;20516;-88
2023/04/10 01:30:56;;;;;;;21.15;11.10;;;;;;;7.17;100.00;99150.28;3242651;22;20030;-89
2023/04/10 01:32:15;;;;;;;21.80;12.15;;;;;;;7.20;100.00;99147.69;3241303;22;20038;-90
2023/04/10 01:33:46;;;;;;;21.70;11.98;;;;;;;7.29;100.00;99148.53;3242676;22;20020;-91
2023/04/10 01:35:06;;;;;;;19.83;11.45;;;;;;;7.30;100.00;99156.31;3241825;22;20020;-89
2023/04/10 01:36:29;;;;;;;18.65;11.07;;;;;;;7.23;100.00;99151.13;3242763;22;20626;-89
2023/04/10 01:37:48;;;;;;;18.27;10.63;;;;;;;7.08;100.00;99145.09;3241563;22;20019;-89
2023/04/10 01:39:05;;;;;;;17.73;10.20;;;;;;;7.04;100.00;99154.66;3242751;22;20087;-90
2023/04/10 01:40:25;;;;;;;18.08;10.55;;;;;;;7.06;100.00;99149.44;3241393;22;20085;-89
2023/04/10 01:41:43;;;;;;;16.52;10.27;;;;;;;7.06;100.00;99145.13;3241749;22;20101;-90
2023/04/10 01:43:00;;;;;;;19.83;11.32;;;;;;;7.08;100.00;99145.09;3224886;23;20574;-89
2023/04/10 01:44:20;;;;;;;22.88;11.13;;;;;;;7.05;100.00;99145.13;3232429;22;20024;-89
2023/04/10 01:45:37;;;;;;;23.17;11.45;;;;;;;6.95;100.00;99143.38;3241407;22;20027;-86
2023/04/10 01:46:55;;;;;;;23.52;11.90;;;;;;;6.84;100.00;99152.06;3242107;22;20047;-91
2023/04/10 01:48:10;;;;;;;23.70;12.38;;;;;;;6.61;100.00;99144.31;3241375;22;20023;-90
2023/04/10 01:49:27;;;;;;;23.10;11.35;;;;;;;6.36;100.00;99149.53;3241886;22;20016;-89
2023/04/10 01:50:47;;;;;;;23.45;11.70;;;;;;;6.47;100.00;99147.78;3224415;23;20016;-89
2023/04/10 01:52:05;;;;;;;24.77;11.88;;;;;;;6.42;100.00;99154.72;3233017;22;20026;-87
2023/04/10 01:53:22;;;;;;;22.60;11.50;;;;;;;6.48;100.00;99151.25;3241264;22;20402;-89
2023/04/10 01:54:37;;;;;;;21.88;11.70;;;;;;;6.66;100.00;99150.38;3242985;22;20447;-89
2023/04/10 01:55:53;;;;;;;21.88;11.73;;;;;;;6.74;100.00;99146.03;3224239;23;20023;-89
2023/04/10 01:57:12;;;;;;;23.02;12.02;;;;;;;6.66;100.00;99145.19;3232317;22;20503;-89
2023/04/10 01:58:29;;;;;;;22.95;11.70;;;;;;;6.61;100.00;99141.69;3225114;23;20103;-91
2023/04/10 01:59:44;;;;;;;23.00;12.02;;;;;;;6.72;100.00;99144.31;3232086;22;20019;-90
2023/04/10 02:01:00;;;;;;;21.85;11.88;;;;;;;6.87;100.00;99139.09;3241481;22;20046;-89
2023/04/10 02:02:16;;;;;;;23.30;11.52;;;;;;;7.03;100.00;99136.44;3242384;22;20019;-89
2023/04/10 02:03:31;;;;;;;20.05;11.00;;;;;;;6.89;100.00;99139.94;3241302;22;20069;-89
2023/04/10 02:04:50;;;;;;;21.58;11.20;;;;;;;6.91;100.00;99138.19;3241752;22;20051;-89
2023/04/10 02:06:26;;;;;;;23.85;11.73;;;;;;;6.97;100.00;99134.72;3241594;22;20031;-89
2023/04/10 02:08:00;;;;;;;22.67;12.30;;;;;;;7.09;100.00;99133.81;3220340;22;20026;-90
2023/04/10 02:09:33;;;;;;;21.77;11.27;;;;;;;7.02;100.00;99132.97;3242042;22;20051;-89
2023/04/10 02:11:01;;;;;;;20.13;11.57;;;;;;;6.77;100.00;99140.84;3241926;22;20447;-86
2023/04/10 02:12:40;;;;;;;23.83;12.23;;;;;;;6.64;100.00;99134.75;3240940;22;20102;-88
2023/04/10 02:14:00;;;;;;;20.92;11.05;;;;;;;6.56;100.00;99139.09;3224777;23;20071;-90
2023/04/10 02:15:19;;;;;;;24.00;12.45;;;;;;;6.64;100.00;99142.56;3233158;22;20024;-91
2023/04/10 02:16:37;;;;;;;23.25;13.05;;;;;;;6.69;100.00;99133.88;3241629;22;20359;-88
2023/04/10 02:17:54;;;;;;;26.85;12.88;;;;;;;6.71;100.00;99133.03;3241419;22;20459;-89
2023/04/10 02:19:11;;;;;;;26.30;13.02;;;;;;;6.64;100.00;99133.91;3242391;22;20161;-89
2023/04/10 02:20:27;;;;;;;25.92;12.82;;;;;;;6.68;100.00;99140.84;3224620;23;20542;-90
2023/04/10 02:21:44;;;;;;;27.60;12.90;;;;;;;6.43;100.00;99135.63;3225220;23;20016;-89
2023/04/10 02:23:02;;;;;;;24.77;13.15;;;;;;;6.32;100.00;99137.38;3225520;22;20095;-89
2023/04/10 02:24:19;;;;;;;25.88;13.02;;;;;;;6.27;100.00;99142.56;3225352;23;20280;-88
2023/04/10 02:25:35;;;;;;;25.00;14.43;;;;;;;6.32;100.00;99145.16;3225867;23;20574;-89
2023/04/10 02:26:51;;;;;;;30.08;14.15;;;;;;;6.49;100.00;99146.03;3226173;22;20020;-90
2023/04/10 02:28:07;;;;;;;27.88;14.40;;;;;;;6.47;100.00;99141.72;3224975;22;20016;-88
2023/04/10 02:29:23;;;;;;;33.25;15.45;;;;;;;6.80;100.00;99145.16;3226495;22;20055;-89
2023/04/10 02:30:39;;;;;;;28.08;14.25;;;;;;;6.97;100.00;99144.25;3225775;22;20073;-88
2023/04/10 02:31:54;;;;;;;26.90;13.55;;;;;;;7.04;100.00;99143.38;3226141;23;20058;-91
2023/04/10 02:33:10;;;;;;;24.65;12.88;;;;;;;6.69;100.00;99144.28;3225531;22;20016;-89
2023/04/10 02:34:26;;;;;;;25.98;13.18;;;;;;;6.72;100.00;99144.31;3226243;22;20027;-90
2023/04/10 02:35:41;;;;;;;26.77;12.88;;;;;;;6.75;100.00;99137.34;3225454;23;20024;-89
2023/04/10 02:36:57;;;;;;;24.20;13.48;;;;;;;6.81;100.00;99139.06;3225879;22;20024;-90
2023/04/10 02:38:12;;;;;;;26.58;13.50;;;;;;;6.69;100.00;99145.19;3225876;22;20020;-90
2023/04/10 02:39:28;;;;;;;23.30;12.50;;;;;;;6.53;100.00;99141.69;3225931;23;20078;-90
2023/04/10 02:40:44;;;;;;;26.05;13.05;;;;;;;6.72;100.00;99141.72;3224092;23;20130;-90
2023/04/10 02:42:00;;;;;;;26.77;14.38;;;;;;;6.94;100.00;99147.75;3225511;23;20555;-90
2023/04/10 02:43:16;;;;;;;29.70;15.07;;;;;;;6.99;100.00;99150.34;3225685;23;20027;-90
2023/04/10 02:44:31;;;;;;;25.00;13.57;;;;;;;6.80;100.00;99147.75;3226034;22;20194;-87
2023/04/10 02:45:47;;;;;;;26.05;14.00;;;;;;;6.75;100.00;99146.91;3225642;23;20392;-88
2023/04/10 02:47:02;;;;;;;26.33;12.77;;;;;;;6.84;100.00;99146.88;3226548;22;20023;-88
2023/04/10 02:48:18;;;;;;;24.88;13.73;;;;;;;6.84;100.00;99144.28;3226177;22;20031;-89
2023/04/10 02:49:34;;;;;;;24.08;12.95;;;;;;;7.03;100.00;99144.25;3225164;22;20031;-89
2023/04/10 02:50:55;;;;;;;23.40;12.85;;;;;;;6.95;100.00;99149.47;3226663;22;20027;-90
2023/04/10 02:52:11;;;;;;;24.60;13.07;;;;;;;6.93;100.00;99148.63;3225218;22;20142;-89
2023/04/10 02:53:27;;;;;;;25.83;13.75;;;;;;;6.95;100.00;99146.00;3226479;22;20356;-90
2023/04/10 02:54:42;;;;;;;23.90;13.32;;;;;;;7.02;100.00;99140.78;3225249;23;20016;-90
2023/04/10 02:55:58;;;;;;;29.13;14.50;;;;;;;7.05;100.00;99142.50;3226024;23;20055;-88
2023/04/10 02:57:15;;;;;;;25.25;13.98;;;;;;;7.18;100.00;99139.00;3224972;22;20024;-89
2023/04/10 02:58:31;;;;;;;29.25;15.52;;;;;;;7.24;100.00;99135.53;3226257;23;20047;-89
2023/04/10 02:59:50;;;;;;;28.92;14.93;;;;;;;7.27;100.00;99142.47;3224732;23;20036;-89
2023/04/10 03:01:08;;;;;;;32.53;15.88;;;;;;;7.31;100.00;99142.44;3227543;22;20138;-91
2023/04/10 03:02:25;;;;;;;27.60;14.27;;;;;;;7.19;100.00;99135.53;3226305;22;20047;-89
2023/04/10 03:03:40;;;;;;;27.38;14.70;;;;;;;7.23;100.00;99139.00;3226634;22;20375;-91
2023/04/10 03:04:56;;;;;;;28.05;15.23;;;;;;;7.30;100.00;99143.31;3224258;23;20400;-91
2023/04/10 03:06:12;;;;;;;32.42;15.45;;;;;;;7.24;100.00;99140.72;3225765;23;20016;-89
2023/04/10 03:07:27;;;;;;;25.10;13.95;;;;;;;7.10;100.00;99142.50;3224968;22;20024;-90
2023/04/10 03:08:43;;;;;;;25.95;13.95;;;;;;;7.02;100.00;99139.91;3225825;23;20016;-90
2023/04/10 03:09:58;;;;;;;28.45;14.95;;;;;;;6.96;100.00;99146.00;3226675;23;20024;-90
2023/04/10 03:11:14;;;;;;;25.98;14.20;;;;;;;7.08;100.00;99139.91;3228302;23;20355;-89
2023/04/10 03:12:29;;;;;;;25.42;13.75;;;;;;;7.36;100.00;99139.81;3227600;22;20333;-88
2023/04/10 03:13:46;;;;;;;28.00;13.63;;;;;;;7.44;100.00;99143.25;3227128;23;20028;-90
2023/04/10 03:15:01;;;;;;;25.80;13.98;;;;;;;7.43;100.00;99146.75;3225527;22;20070;-88
2023/04/10 03:16:17;;;;;;;27.98;14.88;;;;;;;7.43;100.00;99143.25;3226468;22;20106;-88
2023/04/10 03:17:33;;;;;;;26.65;14.30;;;;;;;7.31;100.00;99141.56;3226070;23;20581;-89
2023/04/10 03:18:49;;;;;;;29.27;14.35;;;;;;;7.28;100.00;99139.00;3224653;23;20024;-87
2023/04/10 03:20:05;;;;;;;26.35;14.25;;;;;;;7.31;100.00;99137.22;3216266;23;20090;-89
2023/04/10 03:21:21;;;;;;;24.85;13.40;;;;;;;7.30;100.00;99130.28;3225249;23;20062;-91
2023/04/10 03:22:36;;;;;;;25.98;14.05;;;;;;;7.26;100.00;99132.88;3227133;22;20020;-89
2023/04/10 03:23:52;;;;;;;27.70;14.43;;;;;;;7.27;100.00;99135.50;3227332;23;20031;-90
2023/04/10 03:25:08;;;;;;;25.88;13.80;;;;;;;7.27;100.00;99132.91;3227795;23;20087;-90
2023/04/10 03:26:24;;;;;;;27.10;13.68;;;;;;;7.19;100.00;99130.31;3225009;23;20356;-89
2023/04/10 03:27:40;;;;;;;22.38;12.85;;;;;;;7.01;100.00;99136.44;3226526;22;20399;-89
2023/04/10 03:28:55;;;;;;;25.42;13.32;;;;;;;6.91;100.00;99137.31;3225517;22;20107;-90
2023/04/10 03:30:11;;;;;;;26.30;13.52;;;;;;;6.90;100.00;99139.06;3226187;23;20027;-90
2023/04/10 03:31:27;;;;;;;26.52;14.00;;;;;;;6.98;100.00;99135.56;3224708;22;20031;-89
2023/04/10 03:32:42;;;;;;;24.40;12.93;;;;;;;6.89;100.00;99131.25;3225439;22;20391;-89
2023/04/10 03:33:58;;;;;;;24.65;13.43;;;;;;;6.66;100.00;99136.50;3225997;23;20028;-90
2023/04/10 03:35:14;;;;;;;23.83;12.50;;;;;;;6.55;100.00;99134.75;3226396;23;20028;-90
2023/04/10 03:36:29;;;;;;;28.90;14.07;;;;;;;6.56;100.00;99143.44;3225508;22;20521;-90
2023/04/10 03:37:45;;;;;;;26.33;13.90;;;;;;;6.59;100.00;99135.63;3226192;23;20109;-90
2023/04/10 03:39:00;;;;;;;24.92;13.93;;;;;;;6.60;100.00;99134.75;3225690;23;20024;-90
2023/04/10 03:40:16;;;;;;;28.67;14.23;;;;;;;6.63;100.00;99142.56;3225934;23;20024;-90
2023/04/10 03:41:32;;;;;;;30.50;14.52;;;;;;;6.45;100.00;99139.09;3225030;23;20020;-90
2023/04/10 03:42:47;;;;;;;26.55;13.88;;;;;;;6.52;100.00;99144.31;3226334;22;20393;-89
2023/04/10 03:44:03;;;;;;;24.05;13.57;;;;;;;6.47;100.00;99141.72;3226021;23;20027;-89
2023/04/10 03:45:18;;;;;;;28.80;14.18;;;;;;;6.72;100.00;99146.91;3225939;22;20034;-90
2023/04/10 03:46:34;;;;;;;27.88;14.40;;;;;;;6.89;100.00;99144.25;3225744;22;20020;-90
2023/04/10 03:47:51;;;;;;;25.95;13.88;;;;;;;6.93;100.00;99140.81;3225240;22;20028;-89
2023/04/10 03:49:06;;;;;;;26.33;14.27;;;;;;;7.00;100.00;99137.31;3226659;22;20131;-89
2023/04/10 03:50:22;;;;;;;25.58;13.60;;;;;;;7.05;100.00;99138.19;3225835;23;20020;-90
2023/04/10 03:51:37;;;;;;;27.30;14.00;;;;;;;6.87;100.00;99144.28;3226403;23;20024;-89
2023/04/10 03:52:53;;;;;;;26.77;13.48;;;;;;;6.60;100.00;99142.56;3224938;23;20039;-89
2023/04/10 03:54:08;;;;;;;29.13;13.75;;;;;;;6.40;100.00;99138.25;3226621;23;20027;-89
2023/04/10 03:55:24;;;;;;;26.10;13.75;;;;;;;6.68;100.00;99140.84;3225235;23;20024;-90
2023/04/10 03:56:39;;;;;;;28.05;13.52;;;;;;;6.80;100.00;99150.34;3225625;23;20020;-89
2023/04/10 03:57:55;;;;;;;23.88;13.25;;;;;;;6.86;100.00;99142.56;3224631;22;20046;-89
2023/04/10 03:59:11;;;;;;;28.25;14.85;;;;;;;6.87;100.00;99140.81;3225831;23;20024;-89
2023/04/10 04:00:26;;;;;;;27.27;13.65;;;;;;;6.97;100.00;99137.31;3225087;23;20024;-89
2023/04/10 04:01:42;;;;;;;26.80;14.27;;;;;;;7.02;100.00;99139.91;3225257;23;20074;-89
2023/04/10 04:02:59;;;;;;;26.52;14.32;;;;;;;7.06;100.00;99142.53;3225974;22;20555;-89
2023/04/10 04:04:15;;;;;;;24.40;13.45;;;;;;;7.06;100.00;99142.53;3226116;22;20017;-90
2023/04/10 04:05:31;;;;;;;25.70;13.52;;;;;;;7.09;100.00;99135.56;3224869;22;20055;-89
2023/04/10 04:06:47;;;;;;;26.95;13.65;;;;;;;7.09;100.00;99141.63;3225944;22;20080;-90
2023/04/10 04:08:05;;;;;;;23.92;13.55;;;;;;;7.11;100.00;99147.69;3224804;22;20099;-88
2023/04/10 04:09:21;;;;;;;22.15;12.23;;;;;;;7.07;100.00;99144.25;3225868;23;20063;-89
2023/04/10 04:10:36;;;;;;;25.10;13.40;;;;;;;7.00;100.00;99152.09;3225716;23;20023;-89
2023/04/10 04:11:52;;;;;;;25.05;13.07;;;;;;;6.59;100.00;99153.84;3225778;22;20482;-87
2023/04/10 04:13:07;;;;;;;24.17;12.85;;;;;;;6.46;100.00;99155.59;3224537;22;20039;-89
2023/04/10 04:14:23;;;;;;;26.13;13.23;;;;;;;6.71;100.00;99150.38;3225881;23;20050;-90
2023/04/10 04:15:38;;;;;;;25.40;13.40;;;;;;;6.84;100.00;99151.22;3225551;23;20029;-88
2023/04/10 04:16:54;;;;;;;25.05;14.80;;;;;;;6.90;100.00;99154.69;3224851;22;20023;-89
2023/04/10 04:18:10;;;;;;;26.00;13.50;;;;;;;6.99;100.00;99155.56;3225185;23;20030;-90
2023/04/10 04:19:25;;;;;;;26.02;13.82;;;;;;;6.80;100.00;99160.78;3225541;23;20027;-88
2023/04/10 04:20:41;;;;;;;24.42;13.25;;;;;;;6.61;100.00;99166.00;3236530;22;20085;-89
2023/04/10 04:21:59;;;;;;;26.58;14.10;;;;;;;6.79;100.00;99161.63;3240607;22;20031;-90
2023/04/10 04:23:16;;;;;;;27.73;13.85;;;;;;;6.82;100.00;99166.84;3241513;22;20102;-89
2023/04/10 04:24:32;;;;;;;30.17;14.55;;;;;;;6.97;100.00;99165.06;3240497;22;20456;-89
2023/04/10 04:25:51;;;;;;;27.48;14.88;;;;;;;6.97;100.00;99163.34;3224774;23;20020;-90
2023/04/10 04:27:07;;;;;;;27.67;14.15;;;;;;;7.03;100.00;99165.94;3230911;22;20359;-88
2023/04/10 04:28:22;;;;;;;28.80;14.73;;;;;;;7.05;100.00;99161.63;3241497;22;20016;-90
2023/04/10 04:29:38;;;;;;;28.42;14.38;;;;;;;7.04;100.00;99169.41;3240635;22;20020;-90
2023/04/10 04:30:54;;;;;;;26.33;14.25;;;;;;;6.92;100.00;99173.78;3241628;22;20020;-90
2023/04/10 04:32:09;;;;;;;26.92;13.95;;;;;;;6.78;100.00;99168.59;3240602;22;20066;-89
2023/04/10 04:33:24;;;;;;;27.00;14.88;;;;;;;6.87;100.00;99164.22;3242249;22;20020;-90
2023/04/10 04:34:40;;;;;;;28.92;16.15;;;;;;;6.96;100.00;99158.13;3240591;22;20018;-91
2023/04/10 04:35:56;;;;;;;30.40;15.60;;;;;;;6.96;100.00;99169.44;3241344;22;20460;-90
2023/04/10 04:37:12;;;;;;;29.48;15.13;;;;;;;6.95;100.00;99170.31;3240395;22;20098;-89
2023/04/10 04:38:28;;;;;;;25.98;14.48;;;;;;;6.97;100.00;99165.97;3241273;22;20094;-89
2023/04/10 04:39:43;;;;;;;26.45;13.88;;;;;;;6.99;100.00;99177.22;3240387;22;20050;-87
2023/04/10 04:40:59;;;;;;;23.63;12.82;;;;;;;7.01;100.00;99172.03;3240819;22;20041;-85
2023/04/10 04:42:14;;;;;;;25.50;13.98;;;;;;;6.97;100.00;99168.56;3241471;22;20019;-85
2023/04/10 04:43:30;;;;;;;26.23;14.35;;;;;;;6.99;100.00;99164.22;3240708;22;20070;-86
2023/04/10 04:44:46;;;;;;;27.50;14.15;;;;;;;6.91;100.00;99165.94;3240672;22;20028;-83
2023/04/10 04:46:01;;;;;;;26.05;14.07;;;;;;;7.03;100.00;99168.53;3240760;22;20020;-84
2023/04/10 04:47:17;;;;;;;29.55;15.00;;;;;;;7.05;100.00;99166.81;3240461;22;20051;-87
2023/04/10 04:48:34;;;;;;;24.90;13.55;;;;;;;6.68;100.00;99166.84;3240751;22;20615;-83
2023/04/10 04:49:49;;;;;;;26.63;13.90;;;;;;;6.73;100.00;99170.31;3240943;22;20035;-92
2023/04/10 04:51:06;;;;;;;26.30;14.52;;;;;;;6.84;100.00;99167.69;3240730;22;20356;-90
2023/04/10 04:52:22;;;;;;;27.33;13.38;;;;;;;6.92;100.00;99165.97;3240726;22;20020;-85
2023/04/10 04:53:38;;;;;;;27.33;13.80;;;;;;;7.08;100.00;99171.13;3240245;22;20083;-86
2023/04/10 04:54:53;;;;;;;26.17;14.10;;;;;;;7.15;100.00;99175.47;3240885;22;20024;-90
2023/04/10 04:56:09;;;;;;;24.83;13.70;;;;;;;6.85;100.00;99171.19;3240560;22;20023;-87
2023/04/10 04:57:24;;;;;;;25.73;14.15;;;;;;;6.89;100.00;99165.97;3241455;22;20024;-89
2023/04/10 04:58:40;;;;;;;27.20;14.38;;;;;;;6.87;100.00;99172.91;3240745;22;20015;-91
2023/04/10 04:59:55;;;;;;;26.70;14.52;;;;;;;6.95;100.00;99172.91;3242248;22;20019;-91
2023/04/10 05:01:11;;;;;;;26.70;14.13;;;;;;;7.07;100.00;99172.91;3240787;22;20027;-91
2023/04/10 05:02:27;;;;;;;25.00;13.55;;;;;;;7.09;100.00;99175.47;3242363;22;20024;-91
2023/04/10 05:03:43;;;;;;;26.52;13.63;;;;;;;7.12;100.00;99175.47;3241425;22;20106;-91
2023/04/10 05:04:58;;;;;;;26.23;14.20;;;;;;;7.05;100.00;99176.34;3241632;22;20020;-92
2023/04/10 05:06:14;;;;;;;28.17;14.30;;;;;;;7.12;100.00;99178.06;3240912;22;20024;-90
2023/04/10 05:07:30;;;;;;;26.70;13.93;;;;;;;7.17;100.00;99178.94;3242542;22;20019;-90
2023/04/10 05:08:45;;;;;;;24.92;13.55;;;;;;;7.19;100.00;99182.41;3223355;23;20031;-91
2023/04/10 05:10:01;;;;;;;27.35;15.13;;;;;;;7.27;100.00;99178.94;3231211;22;20371;-91
2023/04/10 05:11:16;;;;;;;25.05;14.15;;;;;;;7.23;100.00;99178.06;3226055;23;20027;-90
2023/04/10 05:12:32;;;;;;;27.00;14.15;;;;;;;7.19;100.00;99181.53;3230429;22;20073;-88
2023/04/10 05:13:48;;;;;;;26.45;14.23;;;;;;;7.23;100.00;99180.66;3241835;22;20030;-90
2023/04/10 05:15:04;;;;;;;24.33;13.60;;;;;;;7.27;100.00;99192.81;3223785;23;20028;-91
2023/04/10 05:16:19;;;;;;;28.25;14.20;;;;;;;7.29;100.00;99188.44;3232126;22;20069;-90
2023/04/10 05:17:35;;;;;;;31.15;14.95;;;;;;;7.16;100.00;99190.22;3239350;22;20027;-90
2023/04/10 05:18:51;;;;;;;26.77;14.98;;;;;;;7.12;100.00;99192.84;3242145;22;20528;-91
2023/04/10 05:20:08;;;;;;;25.67;14.80;;;;;;;7.02;100.00;99199.81;3240281;22;20016;-90
2023/04/10 05:21:24;;;;;;;31.70;17.02;;;;;;;7.12;100.00;99192.84;3241853;22;20099;-90
2023/04/10 05:22:40;;;;;;;36.85;19.73;;;;;;;7.24;100.00;99207.56;3240490;22;20046;-90
2023/04/10 05:23:56;;;;;;;35.75;19.55;;;;;;;7.33;100.00;99197.13;3241787;22;20020;-91
2023/04/10 05:25:11;;;;;;;33.10;17.65;;;;;;;7.32;100.00;99195.41;3240575;22;20019;-91
2023/04/10 05:26:27;;;;;;;33.17;18.25;;;;;;;7.32;100.00;99206.66;3241819;22;20456;-91
2023/04/10 05:27:42;;;;;;;34.95;18.23;;;;;;;7.31;100.00;99202.34;3241218;22;20107;-92
2023/04/10 05:28:58;;;;;;;36.10;19.90;;;;;;;7.17;100.00;99204.09;3241887;22;20028;-91
2023/04/10 05:30:13;;;;;;;31.55;16.77;;;;;;;7.26;100.00;99198.00;3241060;22;20716;-90
2023/04/10 05:31:29;;;;;;;28.80;15.48;;;;;;;7.31;100.00;99210.16;3226014;23;20452;-91
2023/04/10 05:32:45;;;;;;;28.08;15.65;;;;;;;7.37;100.00;99208.41;3230520;22;20367;-92
2023/04/10 05:34:00;;;;;;;27.83;15.38;;;;;;;7.42;100.00;99212.75;3241728;22;20027;-93
2023/04/10 05:35:16;;;;;;;29.20;14.95;;;;;;;7.44;100.00;99203.19;3223810;23;20028;-92
2023/04/10 05:36:32;;;;;;;27.42;15.10;;;;;;;7.46;100.00;99208.38;3230474;22;20027;-91
2023/04/10 05:37:47;;;;;;;27.60;15.02;;;;;;;7.54;100.00;99210.94;3240955;22;20020;-92
2023/04/10 05:39:03;;;;;;;27.95;15.80;;;;;;;7.65;100.00;99213.56;3241418;22;20459;-92
2023/04/10 05:40:19;;;;;;;32.63;15.65;;;;;;;7.61;100.00;99207.47;3241998;22;20019;-91
2023/04/10 05:41:35;;;;;;;27.73;14.48;;;;;;;7.47;100.00;99205.78;3240214;22;20463;-91
2023/04/10 05:42:50;;;;;;;28.95;15.85;;;;;;;7.51;100.00;99203.16;3241567;22;20316;-92
2023/04/10 05:44:06;;;;;;;23.98;14.00;;;;;;;7.54;100.00;99203.13;3240629;22;20482;-93
2023/04/10 05:45:22;;;;;;;29.10;15.63;;;;;;;7.54;100.00;99208.34;3242282;22;20028;-90
2023/04/10 05:46:37;;;;;;;26.52;15.43;;;;;;;7.66;100.00;99208.31;3240609;22;20527;-92
2023/04/10 05:47:53;;;;;;;26.63;14.35;;;;;;;7.63;100.00;99203.13;3243373;22;20016;-92
2023/04/10 05:49:09;;;;;;;27.25;15.43;;;;;;;7.68;100.00;99208.31;3244997;22;20027;-91
2023/04/10 05:50:25;;;;;;;28.42;15.38;;;;;;;7.70;100.00;99206.56;3243360;22;20030;-91
2023/04/10 05:51:40;;;;;;;28.80;14.38;;;;;;;7.79;100.00;99209.16;3241482;22;20022;-91
2023/04/10 05:52:56;;;;;;;26.83;15.35;;;;;;;7.87;100.00;99201.28;3241571;22;20027;-91
2023/04/10 05:54:11;;;;;;;32.05;16.77;;;;;;;7.90;100.00;99211.69;3240576;22;20034;-92
2023/04/10 05:55:30;;;;;;;40.53;21.02;;;;;;;7.97;100.00;99203.00;3241462;22;20027;-91